createdAt,value
2023-03-14T00:00:16.788Z,1.21
2023-03-14T00:03:03.989Z,1.22
2023-03-14T00:05:31.339Z,1.23
2023-03-14T00:08:00.503Z,1.22
2023-03-14T00:10:28.151Z,1.22
2023-03-14T00:12:55.316Z,1.20
2023-03-14T00:15:22.313Z,1.20
2023-03-14T00:17:49.856Z,1.19
2023-03-14T00:20:17.072Z,1.17
2023-03-14T00:22:44.150Z,1.14
2023-03-14T00:25:13.479Z,1.11
2023-03-14T00:27:40.365Z,1.08
2023-03-14T00:30:09.794Z,1.05
2023-03-14T00:32:37.121Z,1.01
2023-03-14T00:35:04.677Z,0.99
2023-03-14T00:37:31.685Z,0.98
2023-03-14T00:39:59.143Z,0.94
2023-03-14T00:42:26.359Z,0.93
2023-03-14T00:44:53.520Z,0.92
2023-03-14T00:47:20.645Z,0.90
2023-03-14T00:49:48.251Z,0.89
2023-03-14T00:52:15.304Z,0.88
2023-03-14T00:54:42.453Z,0.86
2023-03-14T00:57:09.438Z,0.84
2023-03-14T00:59:36.582Z,0.83
2023-03-14T01:02:12.988Z,0.81
2023-03-14T01:04:58.518Z,0.80
2023-03-14T01:07:25.779Z,0.81
2023-03-14T01:09:53.648Z,0.81
2023-03-14T01:12:20.676Z,0.80
2023-03-14T01:14:47.711Z,0.80
2023-03-14T01:17:14.777Z,0.79
2023-03-14T01:19:41.847Z,0.78
2023-03-14T01:22:09.056Z,0.79
2023-03-14T01:24:37.702Z,0.79
2023-03-14T01:27:04.698Z,0.81
2023-03-14T01:29:31.833Z,0.82
2023-03-14T01:31:58.914Z,0.83
2023-03-14T01:34:26.031Z,0.82
2023-03-14T01:36:53.496Z,0.82
2023-03-14T01:39:20.540Z,0.82
2023-03-14T01:41:49.951Z,0.83
2023-03-14T01:44:17.022Z,0.83
2023-03-14T01:46:49.205Z,0.85
2023-03-14T01:49:33.347Z,0.86
2023-03-14T01:52:12.028Z,0.86
2023-03-14T01:54:52.274Z,0.88
2023-03-14T01:57:47.185Z,0.90
2023-03-14T02:00:17.481Z,0.91
2023-03-14T02:02:55.832Z,0.92
2023-03-14T02:05:27.266Z,0.92
2023-03-14T02:08:00.656Z,0.92
2023-03-14T02:10:34.882Z,0.92
2023-03-14T02:13:05.606Z,0.93
2023-03-14T02:15:40.359Z,0.93
2023-03-14T02:18:15.090Z,0.92
2023-03-14T02:20:48.406Z,0.90
2023-03-14T02:23:21.142Z,0.88
2023-03-14T02:25:59.057Z,0.85
2023-03-14T02:28:28.950Z,0.82
2023-03-14T02:30:59.159Z,0.79
2023-03-14T02:33:27.694Z,0.76
2023-03-14T02:36:01.091Z,0.73
2023-03-14T02:38:31.021Z,0.69
2023-03-14T02:41:00.251Z,0.66
2023-03-14T02:43:28.096Z,0.62
2023-03-14T02:45:59.805Z,0.58
2023-03-14T02:48:30.845Z,0.54
2023-03-14T02:51:00.408Z,0.51
2023-03-14T02:53:31.858Z,0.48
2023-03-14T02:56:01.539Z,0.44
2023-03-14T02:58:30.858Z,0.42
2023-03-14T03:01:05.240Z,0.40
2023-03-14T03:03:32.690Z,0.40
2023-03-14T03:05:59.873Z,0.41
2023-03-14T03:08:28.867Z,0.39
2023-03-14T03:10:58.464Z,0.37
2023-03-14T03:13:27.204Z,0.35
2023-03-14T03:15:54.497Z,0.33
2023-03-14T03:18:21.850Z,0.30
2023-03-14T03:20:52.035Z,0.27
2023-03-14T03:23:18.979Z,0.24
2023-03-14T03:25:50.583Z,0.22
2023-03-14T03:28:18.671Z,0.19
2023-03-14T03:30:45.994Z,0.16
2023-03-14T03:33:13.896Z,0.13
2023-03-14T03:35:49.749Z,0.10
2023-03-14T03:38:20.717Z,0.08
2023-03-14T03:40:49.028Z,0.05
2023-03-14T03:43:16.472Z,0.03
2023-03-14T03:45:44.690Z,-0.01
2023-03-14T03:48:11.771Z,-0.04
2023-03-14T03:50:45.177Z,-0.06
2023-03-14T03:53:15.578Z,-0.07
2023-03-14T03:55:42.937Z,-0.10
2023-03-14T03:58:09.899Z,-0.12
2023-03-14T04:00:36.835Z,-0.14
2023-03-14T04:03:03.973Z,-0.16
2023-03-14T04:05:31.164Z,-0.17
2023-03-14T04:08:05.015Z,-0.19
2023-03-14T04:10:37.451Z,-0.21
2023-03-14T04:13:13.886Z,-0.24
2023-03-14T04:15:43.054Z,-0.28
2023-03-14T04:18:16.529Z,-0.28
2023-03-14T04:20:44.309Z,-0.30
2023-03-14T04:23:12.354Z,-0.32
2023-03-14T04:25:39.841Z,-0.33
2023-03-14T04:28:06.860Z,-0.35
2023-03-14T04:30:34.017Z,-0.36
2023-03-14T04:33:07.953Z,-0.39
2023-03-14T04:35:38.721Z,-0.42
2023-03-14T04:38:09.525Z,-0.40
2023-03-14T04:40:41.600Z,-0.40
2023-03-14T04:43:10.650Z,-0.40
2023-03-14T04:45:42.793Z,-0.41
2023-03-14T04:48:10.376Z,-0.45
2023-03-14T04:50:38.199Z,-0.44
2023-03-14T04:53:05.883Z,-0.44
2023-03-14T04:55:33.577Z,-0.44
2023-03-14T04:58:00.647Z,-0.44
2023-03-14T05:00:27.834Z,-0.42
2023-03-14T05:03:00.952Z,-0.40
2023-03-14T05:05:59.040Z,-0.37
2023-03-14T05:08:39.738Z,-0.34
2023-03-14T05:11:33.202Z,-0.29
2023-03-14T05:14:20.468Z,-0.21
2023-03-14T05:17:00.076Z,-0.11
2023-03-14T05:19:46.026Z,0.01
2023-03-14T05:22:28.625Z,0.18
2023-03-14T05:25:09.160Z,0.37
2023-03-14T05:27:55.926Z,0.57
2023-03-14T05:30:41.789Z,0.80
2023-03-14T05:33:23.621Z,1.06
2023-03-14T05:36:13.974Z,1.32
2023-03-14T05:38:59.860Z,1.60
2023-03-14T05:41:46.028Z,1.87
2023-03-14T05:44:28.340Z,2.16
2023-03-14T05:47:14.010Z,2.43
2023-03-14T05:49:54.008Z,2.71
2023-03-14T05:52:50.475Z,2.98
2023-03-14T05:55:31.061Z,3.29
2023-03-14T05:58:15.106Z,3.62
2023-03-14T06:01:06.630Z,3.95
2023-03-14T06:03:54.516Z,4.31
2023-03-14T06:06:24.730Z,4.59
2023-03-14T06:08:51.879Z,4.81
2023-03-14T06:11:18.764Z,4.97
2023-03-14T06:13:46.944Z,5.09
2023-03-14T06:16:15.566Z,5.20
2023-03-14T06:18:43.307Z,5.32
2023-03-14T06:21:10.662Z,5.44
2023-03-14T06:23:40.880Z,5.58
2023-03-14T06:26:08.135Z,5.71
2023-03-14T06:28:36.929Z,5.82
2023-03-14T06:31:11.035Z,5.94
2023-03-14T06:33:49.720Z,6.05
2023-03-14T06:36:17.432Z,6.14
2023-03-14T06:38:46.697Z,6.26
2023-03-14T06:41:14.056Z,6.38
2023-03-14T06:43:43.713Z,6.51
2023-03-14T06:46:11.009Z,6.65
2023-03-14T06:48:39.531Z,6.82
2023-03-14T06:51:07.240Z,7.01
2023-03-14T06:53:35.509Z,7.17
2023-03-14T06:56:03.127Z,7.30
2023-03-14T06:58:31.058Z,7.46
2023-03-14T07:00:59.379Z,7.61
2023-03-14T07:03:34.974Z,7.80
2023-03-14T07:06:03.764Z,8.01
2023-03-14T07:08:31.186Z,8.19
2023-03-14T07:10:58.574Z,8.38
2023-03-14T07:13:25.764Z,8.62
2023-03-14T07:16:00.822Z,8.87
2023-03-14T07:18:28.063Z,9.10
2023-03-14T07:20:55.843Z,9.35
2023-03-14T07:23:22.991Z,9.67
2023-03-14T07:25:54.028Z,9.97
2023-03-14T07:28:23.675Z,10.30
2023-03-14T07:30:57.288Z,10.64
2023-03-14T07:33:31.382Z,10.97
2023-03-14T07:35:58.579Z,11.29
2023-03-14T07:38:26.092Z,11.56
2023-03-14T07:41:11.566Z,11.80
2023-03-14T07:43:55.142Z,12.05
2023-03-14T07:46:22.607Z,12.28
2023-03-14T07:48:49.860Z,12.44
2023-03-14T07:51:17.089Z,12.57
2023-03-14T07:53:44.426Z,12.70
2023-03-14T07:56:11.665Z,12.73
2023-03-14T07:58:38.686Z,12.75
2023-03-14T08:01:05.969Z,12.82
2023-03-14T08:03:33.133Z,13.00
2023-03-14T08:06:00.156Z,13.24
2023-03-14T08:08:27.325Z,13.51
2023-03-14T08:10:54.481Z,13.80
2023-03-14T08:13:21.907Z,13.98
2023-03-14T08:15:49.860Z,14.18
2023-03-14T08:18:17.447Z,14.37
2023-03-14T08:20:44.882Z,14.65
2023-03-14T08:23:17.330Z,14.94
2023-03-14T08:25:48.328Z,15.19
2023-03-14T08:28:16.636Z,15.46
2023-03-14T08:30:47.321Z,15.71
2023-03-14T08:33:14.813Z,15.79
2023-03-14T08:35:42.644Z,15.86
2023-03-14T08:38:13.617Z,15.92
2023-03-14T08:40:40.822Z,15.89
2023-03-14T08:43:08.137Z,15.79
2023-03-14T08:45:38.310Z,15.74
2023-03-14T08:48:08.419Z,15.71
2023-03-14T08:50:35.617Z,15.68
2023-03-14T08:53:06.073Z,15.71
2023-03-14T08:55:34.950Z,15.70
2023-03-14T08:58:05.114Z,15.65
2023-03-14T09:00:32.227Z,15.62
2023-03-14T09:02:59.449Z,15.51
2023-03-14T09:05:38.550Z,15.37
2023-03-14T09:08:06.187Z,15.32
2023-03-14T09:10:54.364Z,15.30
2023-03-14T09:13:23.843Z,15.27
2023-03-14T09:15:54.170Z,15.34
2023-03-14T09:18:21.855Z,15.37
2023-03-14T09:20:51.246Z,15.30
2023-03-14T09:23:18.388Z,15.20
2023-03-14T09:25:47.842Z,15.12
2023-03-14T09:28:18.213Z,15.02
2023-03-14T09:30:45.256Z,14.87
2023-03-14T09:33:15.561Z,14.68
2023-03-14T09:35:42.859Z,14.53
2023-03-14T09:38:20.319Z,14.46
2023-03-14T09:40:54.026Z,14.50
2023-03-14T09:43:47.504Z,14.54
2023-03-14T09:46:25.706Z,14.57
2023-03-14T09:49:06.299Z,14.55
2023-03-14T09:51:54.713Z,14.56
2023-03-14T09:54:37.396Z,14.50
2023-03-14T09:57:06.066Z,14.45
2023-03-14T09:59:35.900Z,14.48
2023-03-14T10:02:17.564Z,14.55
2023-03-14T10:04:46.353Z,14.72
2023-03-14T10:07:19.965Z,14.95
2023-03-14T10:09:51.679Z,15.17
2023-03-14T10:12:19.930Z,15.41
2023-03-14T10:14:50.955Z,15.62
2023-03-14T10:17:19.885Z,15.83
2023-03-14T10:19:59.039Z,16.10
2023-03-14T10:22:30.725Z,16.46
2023-03-14T10:25:25.480Z,16.76
2023-03-14T10:27:52.883Z,17.05
2023-03-14T10:30:39.133Z,17.33
2023-03-14T10:33:23.580Z,17.68
2023-03-14T10:36:16.925Z,18.01
2023-03-14T10:38:44.237Z,18.48
2023-03-14T10:41:26.338Z,18.95
2023-03-14T10:44:02.981Z,19.39
2023-03-14T10:46:33.679Z,19.68
2023-03-14T10:49:35.118Z,19.96
2023-03-14T10:52:31.582Z,20.39
2023-03-14T10:55:18.210Z,20.70
2023-03-14T10:57:45.579Z,20.88
2023-03-14T11:00:23.581Z,20.99
2023-03-14T11:02:53.702Z,21.06
2023-03-14T11:05:48.687Z,21.02
2023-03-14T11:08:23.286Z,20.87
2023-03-14T11:10:58.724Z,20.81
2023-03-14T11:13:34.620Z,20.85
2023-03-14T11:16:26.099Z,21.00
2023-03-14T11:18:56.913Z,21.22
2023-03-14T11:21:43.083Z,21.40
2023-03-14T11:24:13.255Z,21.61
2023-03-14T11:26:56.721Z,21.86
2023-03-14T11:29:45.310Z,22.04
2023-03-14T11:32:25.254Z,22.23
2023-03-14T11:34:54.326Z,22.48
2023-03-14T11:37:41.968Z,22.78
2023-03-14T11:40:09.173Z,22.86
2023-03-14T11:42:41.882Z,22.95
2023-03-14T11:45:31.112Z,22.99
2023-03-14T11:48:46.289Z,23.10
2023-03-14T11:51:52.948Z,23.12
2023-03-14T11:54:51.784Z,22.62
2023-03-14T11:57:24.428Z,22.15
2023-03-14T12:00:10.509Z,21.75
2023-03-14T12:03:09.151Z,21.41
2023-03-14T12:06:21.800Z,21.11
2023-03-14T12:08:59.804Z,20.72
2023-03-14T12:11:53.272Z,20.50
2023-03-14T12:14:33.888Z,20.33
2023-03-14T12:17:15.349Z,20.16
2023-03-14T12:19:42.689Z,20.06
2023-03-14T12:22:31.939Z,20.01
2023-03-14T12:25:27.939Z,19.95
2023-03-14T12:27:55.047Z,19.84
2023-03-14T12:30:27.811Z,19.83
2023-03-14T12:33:10.257Z,19.83
2023-03-14T12:35:37.477Z,19.82
2023-03-14T12:38:36.162Z,19.95
2023-03-14T12:41:21.876Z,20.31
2023-03-14T12:43:52.249Z,20.79
2023-03-14T12:46:26.559Z,21.01
2023-03-14T12:49:03.056Z,21.09
2023-03-14T12:51:44.152Z,21.19
2023-03-14T12:54:17.386Z,21.42
2023-03-14T12:57:02.821Z,21.62
2023-03-14T12:59:36.906Z,21.84
2023-03-14T13:02:10.150Z,22.01
2023-03-14T13:04:48.440Z,22.23
2023-03-14T13:07:44.864Z,22.31
2023-03-14T13:10:11.986Z,22.25
2023-03-14T13:12:48.349Z,22.15
2023-03-14T13:15:38.545Z,22.11
2023-03-14T13:18:15.763Z,22.17
2023-03-14T13:20:53.650Z,22.22
2023-03-14T13:23:34.413Z,22.28
2023-03-14T13:26:07.017Z,22.36
2023-03-14T13:28:36.304Z,22.48
2023-03-14T13:31:06.174Z,22.62
2023-03-14T13:33:41.473Z,22.81
2023-03-14T13:36:10.415Z,22.95
2023-03-14T13:38:37.479Z,23.11
2023-03-14T13:41:07.135Z,23.19
2023-03-14T13:43:42.158Z,23.24
2023-03-14T13:46:25.833Z,23.32
2023-03-14T13:48:57.147Z,23.43
2023-03-14T13:51:25.555Z,23.34
2023-03-14T13:53:55.376Z,23.25
2023-03-14T13:56:26.115Z,23.14
2023-03-14T13:58:56.133Z,22.97
2023-03-14T14:01:35.547Z,22.88
2023-03-14T14:04:19.652Z,22.78
2023-03-14T14:06:52.404Z,22.68
2023-03-14T14:09:51.066Z,22.61
2023-03-14T14:12:29.408Z,22.59
2023-03-14T14:15:05.182Z,22.61
2023-03-14T14:17:39.452Z,22.60
2023-03-14T14:20:15.496Z,22.51
2023-03-14T14:22:42.774Z,22.44
2023-03-14T14:25:16.383Z,22.36
2023-03-14T14:27:49.266Z,22.27
2023-03-14T14:30:19.508Z,22.22
2023-03-14T14:32:49.140Z,22.24
2023-03-14T14:35:31.741Z,22.21
2023-03-14T14:37:59.645Z,22.16
2023-03-14T14:40:29.395Z,22.15
2023-03-14T14:43:04.185Z,22.11
2023-03-14T14:45:34.637Z,22.07
2023-03-14T14:48:01.471Z,22.00
2023-03-14T14:50:39.854Z,21.92
2023-03-14T14:53:41.189Z,21.81
2023-03-14T14:56:22.857Z,21.67
2023-03-14T14:58:49.986Z,21.52
2023-03-14T15:01:24.516Z,21.34
2023-03-14T15:03:53.543Z,21.14
2023-03-14T15:06:22.087Z,20.96
2023-03-14T15:08:49.812Z,20.81
2023-03-14T15:11:25.002Z,20.62
2023-03-14T15:13:53.056Z,20.46
2023-03-14T15:16:28.390Z,20.27
2023-03-14T15:19:01.871Z,20.03
2023-03-14T15:21:30.122Z,19.78
2023-03-14T15:23:57.294Z,19.51
2023-03-14T15:26:27.503Z,19.18
2023-03-14T15:28:54.560Z,18.95
2023-03-14T15:31:21.881Z,18.77
2023-03-14T15:33:49.606Z,18.58
2023-03-14T15:36:26.443Z,18.41
2023-03-14T15:38:55.522Z,18.25
2023-03-14T15:41:23.572Z,18.09
2023-03-14T15:43:51.218Z,17.92
2023-03-14T15:46:19.016Z,17.77
2023-03-14T15:48:46.582Z,17.60
2023-03-14T15:51:13.621Z,17.44
2023-03-14T15:53:43.508Z,17.24
2023-03-14T15:56:16.664Z,17.05
2023-03-14T15:58:46.869Z,16.90
2023-03-14T16:01:16.295Z,16.76
2023-03-14T16:03:48.801Z,16.62
2023-03-14T16:06:16.033Z,16.50
2023-03-14T16:08:43.048Z,16.35
2023-03-14T16:11:11.883Z,16.20
2023-03-14T16:13:39.974Z,16.07
2023-03-14T16:16:08.905Z,15.95
2023-03-14T16:18:38.277Z,15.82
2023-03-14T16:21:12.122Z,15.70
2023-03-14T16:23:39.097Z,15.59
2023-03-14T16:26:08.854Z,15.48
2023-03-14T16:28:39.015Z,15.37
2023-03-14T16:31:09.792Z,15.22
2023-03-14T16:33:38.070Z,15.07
2023-03-14T16:36:11.310Z,14.90
2023-03-14T16:38:42.412Z,14.78
2023-03-14T16:41:15.745Z,14.66
2023-03-14T16:43:43.347Z,14.53
2023-03-14T16:46:16.515Z,14.37
2023-03-14T16:48:44.677Z,14.23
2023-03-14T16:51:11.972Z,14.11
2023-03-14T16:53:38.880Z,14.00
2023-03-14T16:56:06.457Z,13.88
2023-03-14T16:58:33.386Z,13.77
2023-03-14T17:01:09.550Z,13.66
2023-03-14T17:03:41.708Z,13.55
2023-03-14T17:06:16.858Z,13.42
2023-03-14T17:08:46.632Z,13.28
2023-03-14T17:11:13.705Z,13.15
2023-03-14T17:13:40.873Z,13.01
2023-03-14T17:16:08.498Z,12.87
2023-03-14T17:18:36.978Z,12.72
2023-03-14T17:21:05.318Z,12.56
2023-03-14T17:23:33.736Z,12.43
2023-03-14T17:26:18.698Z,12.29
2023-03-14T17:28:46.162Z,12.13
2023-03-14T17:31:16.610Z,12.00
2023-03-14T17:33:45.004Z,11.87
2023-03-14T17:36:15.074Z,11.72
2023-03-14T17:38:42.230Z,11.58
2023-03-14T17:41:14.746Z,11.44
2023-03-14T17:43:42.723Z,11.28
2023-03-14T17:46:14.221Z,11.14
2023-03-14T17:48:44.108Z,10.99
2023-03-14T17:51:12.332Z,10.88
2023-03-14T17:53:40.844Z,10.81
2023-03-14T17:56:08.932Z,10.72
2023-03-14T17:58:37.594Z,10.63
2023-03-14T18:01:14.272Z,10.55
2023-03-14T18:03:42.013Z,10.45
2023-03-14T18:06:10.515Z,10.36
2023-03-14T18:08:43.372Z,10.26
2023-03-14T18:11:11.538Z,10.16
2023-03-14T18:13:39.985Z,10.07
2023-03-14T18:16:13.781Z,9.99
2023-03-14T18:18:42.624Z,9.92
2023-03-14T18:21:11.030Z,9.85
2023-03-14T18:23:38.893Z,9.79
2023-03-14T18:26:08.730Z,9.74
2023-03-14T18:28:39.108Z,9.69
2023-03-14T18:31:11.468Z,9.62
2023-03-14T18:33:41.056Z,9.56
2023-03-14T18:36:09.871Z,9.48
2023-03-14T18:38:42.525Z,9.41
2023-03-14T18:41:12.248Z,9.35
2023-03-14T18:43:39.704Z,9.29
2023-03-14T18:46:06.840Z,9.23
2023-03-14T18:48:33.881Z,9.18
2023-03-14T18:51:01.069Z,9.13
2023-03-14T18:53:31.720Z,9.07
2023-03-14T18:56:00.416Z,8.99
2023-03-14T18:58:28.213Z,8.92
2023-03-14T19:01:01.376Z,8.86
2023-03-14T19:03:30.334Z,8.80
2023-03-14T19:05:58.268Z,8.76
2023-03-14T19:08:27.704Z,8.71
2023-03-14T19:11:00.422Z,8.64
2023-03-14T19:13:28.339Z,8.57
2023-03-14T19:15:55.511Z,8.50
2023-03-14T19:18:23.681Z,8.42
2023-03-14T19:21:09.537Z,8.37
2023-03-14T19:23:39.166Z,8.33
2023-03-14T19:26:06.855Z,8.27
2023-03-14T19:28:34.105Z,8.22
2023-03-14T19:31:03.561Z,8.18
2023-03-14T19:33:31.709Z,8.14
2023-03-14T19:35:59.161Z,8.11
2023-03-14T19:38:26.362Z,8.08
2023-03-14T19:40:58.450Z,8.06
2023-03-14T19:43:26.921Z,8.03
2023-03-14T19:45:57.915Z,7.99
2023-03-14T19:48:29.590Z,7.96
2023-03-14T19:50:59.870Z,7.91
2023-03-14T19:53:26.886Z,7.85
2023-03-14T19:55:54.210Z,7.78
2023-03-14T19:58:24.504Z,7.72
2023-03-14T20:00:51.676Z,7.66
2023-03-14T20:03:23.329Z,7.61
2023-03-14T20:05:52.667Z,7.56
2023-03-14T20:08:23.458Z,7.53
2023-03-14T20:10:50.667Z,7.49
2023-03-14T20:13:21.878Z,7.44
2023-03-14T20:15:52.559Z,7.39
2023-03-14T20:18:41.871Z,7.34
2023-03-14T20:21:14.927Z,7.28
2023-03-14T20:23:43.575Z,7.22
2023-03-14T20:26:10.801Z,7.16
2023-03-14T20:28:37.892Z,7.09
2023-03-14T20:31:08.301Z,7.03
2023-03-14T20:33:35.497Z,6.98
2023-03-14T20:36:02.974Z,6.93
2023-03-14T20:38:30.579Z,6.88
2023-03-14T20:40:59.385Z,6.83
2023-03-14T20:43:31.199Z,6.77
2023-03-14T20:46:00.429Z,6.71
2023-03-14T20:48:29.661Z,6.65
2023-03-14T20:50:57.569Z,6.60
2023-03-14T20:53:24.882Z,6.53
2023-03-14T20:55:55.587Z,6.48
2023-03-14T20:58:24.513Z,6.41
2023-03-14T21:00:54.373Z,6.38
2023-03-14T21:03:23.434Z,6.37
2023-03-14T21:05:51.664Z,6.38
2023-03-14T21:08:23.953Z,6.36
2023-03-14T21:10:53.928Z,6.33
2023-03-14T21:13:21.556Z,6.29
2023-03-14T21:15:48.820Z,6.25
2023-03-14T21:18:16.637Z,6.21
2023-03-14T21:20:44.166Z,6.15
2023-03-14T21:23:12.286Z,6.12
2023-03-14T21:25:43.054Z,6.11
2023-03-14T21:28:11.927Z,6.11
2023-03-14T21:30:39.242Z,6.13
2023-03-14T21:33:06.240Z,6.18
2023-03-14T21:35:33.409Z,6.20
2023-03-14T21:38:00.776Z,6.22
2023-03-14T21:40:27.774Z,6.24
2023-03-14T21:42:55.126Z,6.26
2023-03-14T21:45:26.637Z,6.25
2023-03-14T21:47:56.044Z,6.22
2023-03-14T21:50:25.778Z,6.17
2023-03-14T21:52:56.278Z,6.15
2023-03-14T21:55:24.823Z,6.14
2023-03-14T21:57:54.355Z,6.11
2023-03-14T22:00:21.719Z,6.08
2023-03-14T22:03:11.629Z,6.06
2023-03-14T22:05:46.667Z,6.03
2023-03-14T22:08:15.407Z,5.99
2023-03-14T22:10:47.905Z,5.95
2023-03-14T22:13:16.270Z,5.91
2023-03-14T22:15:46.090Z,5.86
2023-03-14T22:18:15.260Z,5.82
2023-03-14T22:20:43.484Z,5.77
2023-03-14T22:23:11.853Z,5.72
2023-03-14T22:25:43.718Z,5.69
2023-03-14T22:28:10.892Z,5.65
2023-03-14T22:30:38.394Z,5.63
2023-03-14T22:33:05.702Z,5.58
2023-03-14T22:35:33.270Z,5.52
2023-03-14T22:38:00.403Z,5.48
2023-03-14T22:40:27.528Z,5.44
2023-03-14T22:42:54.727Z,5.40
2023-03-14T22:45:22.087Z,5.35
2023-03-14T22:47:49.242Z,5.31
2023-03-14T22:50:16.451Z,5.26
2023-03-14T22:52:43.519Z,5.22
2023-03-14T22:55:10.730Z,5.19
2023-03-14T22:57:39.394Z,5.16
2023-03-14T23:00:11.510Z,5.12
2023-03-14T23:02:39.550Z,5.09
2023-03-14T23:05:06.787Z,5.07
2023-03-14T23:07:33.965Z,5.05
2023-03-14T23:10:01.091Z,5.01
2023-03-14T23:12:28.056Z,4.97
2023-03-14T23:14:55.109Z,4.92
2023-03-14T23:17:24.921Z,4.87
2023-03-14T23:19:53.325Z,4.82
2023-03-14T23:22:21.065Z,4.76
2023-03-14T23:24:48.270Z,4.73
2023-03-14T23:27:18.179Z,4.68
2023-03-14T23:29:46.335Z,4.63
2023-03-14T23:32:15.044Z,4.60
2023-03-14T23:34:42.880Z,4.58
2023-03-14T23:37:13.261Z,4.55
2023-03-14T23:39:43.980Z,4.51
2023-03-14T23:42:12.001Z,4.49
2023-03-14T23:44:39.449Z,4.48
2023-03-14T23:47:06.787Z,4.46
2023-03-14T23:49:33.833Z,4.43
2023-03-14T23:52:01.111Z,4.42
2023-03-14T23:54:28.176Z,4.41
2023-03-14T23:56:55.198Z,4.38
2023-03-14T23:59:24.012Z,4.36
